createdAt,value
2018-11-14T00:01:46.234Z,30.20
2018-11-14T00:04:19.677Z,30.10
2018-11-14T00:06:53.656Z,30.20
2018-11-14T00:09:28.156Z,30.20
2018-11-14T00:12:02.159Z,30.20
2018-11-14T00:14:36.449Z,30.20
2018-11-14T00:17:10.455Z,30.30
2018-11-14T00:19:44.823Z,30.30
2018-11-14T00:22:18.251Z,30.30
2018-11-14T00:24:53.198Z,30.30
2018-11-14T00:27:26.844Z,30.30
2018-11-14T00:30:00.960Z,30.40
2018-11-14T00:32:34.843Z,30.40
2018-11-14T00:35:09.235Z,30.40
2018-11-14T00:37:46.578Z,30.50
2018-11-14T00:40:20.956Z,30.50
2018-11-14T00:42:55.818Z,30.50
2018-11-14T00:45:29.527Z,30.60
2018-11-14T00:48:03.469Z,30.70
2018-11-14T00:50:37.561Z,30.80
2018-11-14T00:53:12.137Z,30.80
2018-11-14T00:55:46.744Z,30.90
2018-11-14T00:58:20.876Z,31.00
2018-11-14T01:00:54.928Z,31.00
2018-11-14T01:10:31.580Z,31.30
2018-11-14T01:13:05.331Z,31.30
2018-11-14T01:15:39.156Z,31.30
2018-11-14T01:18:12.624Z,31.40
2018-11-14T01:20:46.572Z,31.40
2018-11-14T01:23:20.282Z,31.50
2018-11-14T01:25:53.982Z,31.50
2018-11-14T01:28:27.465Z,31.60
2018-11-14T01:31:01.624Z,31.70
2018-11-14T01:33:37.297Z,31.70
2018-11-14T01:36:13.097Z,31.70
2018-11-14T01:38:48.612Z,31.80
2018-11-14T01:41:22.538Z,31.80
2018-11-14T01:43:56.913Z,31.90
2018-11-14T01:46:30.401Z,31.90
2018-11-14T01:49:05.647Z,32.00
2018-11-14T01:51:39.289Z,32.00
2018-11-14T01:54:13.398Z,32.00
2018-11-14T01:56:47.070Z,32.00
2018-11-14T01:59:21.583Z,32.10
2018-11-14T02:01:55.554Z,32.10
2018-11-14T02:04:31.525Z,32.10
2018-11-14T02:07:05.333Z,32.20
2018-11-14T02:09:39.370Z,32.20
2018-11-14T02:12:13.050Z,32.20
2018-11-14T02:14:46.701Z,32.20
2018-11-14T02:17:20.961Z,32.30
2018-11-14T02:19:54.804Z,32.30
2018-11-14T02:22:28.814Z,32.40
2018-11-14T02:25:02.528Z,32.40
2018-11-14T02:27:37.487Z,32.40
2018-11-14T02:30:13.708Z,32.50
2018-11-14T02:32:47.531Z,32.50
2018-11-14T02:35:21.175Z,32.60
2018-11-14T02:37:55.330Z,32.70
2018-11-14T02:40:29.841Z,32.70
2018-11-14T02:43:03.877Z,32.80
2018-11-14T02:45:37.281Z,32.90
2018-11-14T02:51:11.252Z,32.90
2018-11-14T02:53:44.827Z,33.00
2018-11-14T02:56:19.622Z,33.00
2018-11-14T02:58:53.548Z,33.00
2018-11-14T03:01:27.739Z,33.10
2018-11-14T03:04:01.506Z,33.10
2018-11-14T03:06:35.150Z,33.10
2018-11-14T03:09:10.123Z,33.20
2018-11-14T03:11:43.667Z,33.20
2018-11-14T03:14:17.405Z,33.30
2018-11-14T03:16:51.577Z,33.30
2018-11-14T03:19:25.973Z,33.30
2018-11-14T03:21:59.922Z,33.40
2018-11-14T03:24:34.196Z,33.40
2018-11-14T03:27:08.333Z,33.40
2018-11-14T03:29:42.318Z,33.50
2018-11-14T03:32:16.305Z,33.50
2018-11-14T03:34:50.145Z,33.60
2018-11-14T03:37:23.949Z,33.70
2018-11-14T03:39:58.079Z,33.70
2018-11-14T03:42:33.559Z,33.80
2018-11-14T03:45:07.317Z,33.90
2018-11-14T03:47:41.167Z,33.90
2018-11-14T03:50:15.342Z,33.90
2018-11-14T03:52:49.185Z,33.90
2018-11-14T03:55:23.250Z,34.00
2018-11-14T03:57:57.066Z,34.00
2018-11-14T04:00:40.936Z,34.00
2018-11-14T04:03:22.089Z,34.00
2018-11-14T04:06:03.938Z,34.00
2018-11-14T04:08:47.731Z,34.10
2018-11-14T04:11:36.679Z,34.10
2018-11-14T04:14:24.075Z,34.10
2018-11-14T04:17:18.238Z,34.10
2018-11-14T04:19:59.564Z,34.20
2018-11-14T04:23:01.775Z,34.20
2018-11-14T04:25:44.016Z,34.20
2018-11-14T04:28:29.215Z,34.20
2018-11-14T04:31:13.737Z,34.30
2018-11-14T04:34:03.760Z,34.30
2018-11-14T04:36:48.157Z,34.30
2018-11-14T04:39:28.559Z,34.40
2018-11-14T04:42:07.050Z,34.40
2018-11-14T04:44:56.309Z,34.40
2018-11-14T04:47:42.609Z,34.40
2018-11-14T04:50:27.469Z,34.50
2018-11-14T04:53:09.023Z,34.50
2018-11-14T04:55:56.505Z,34.60
2018-11-14T04:58:41.650Z,34.60
2018-11-14T05:01:17.687Z,34.60
2018-11-14T05:03:51.296Z,34.60
2018-11-14T05:06:24.937Z,34.70
2018-11-14T05:08:59.482Z,34.70
2018-11-14T05:11:33.372Z,34.70
2018-11-14T05:14:15.495Z,34.70
2018-11-14T05:16:53.753Z,34.70
2018-11-14T05:19:28.836Z,34.80
2018-11-14T05:22:02.654Z,34.70
2018-11-14T05:24:37.518Z,34.70
2018-11-14T05:27:11.783Z,34.70
2018-11-14T05:29:45.266Z,34.60
2018-11-14T05:32:19.080Z,34.50
2018-11-14T05:34:52.975Z,34.40
2018-11-14T05:37:26.734Z,34.40
2018-11-14T05:40:01.248Z,34.30
2018-11-14T05:42:35.216Z,34.20
2018-11-14T05:45:12.447Z,34.10
2018-11-14T05:47:47.358Z,34.00
2018-11-14T05:50:24.182Z,34.00
2018-11-14T05:52:57.914Z,33.90
2018-11-14T05:55:31.850Z,33.80
2018-11-14T05:58:05.738Z,33.70
2018-11-14T06:00:39.279Z,33.70
2018-11-14T06:08:17.438Z,33.50
2018-11-14T06:10:51.251Z,33.20
2018-11-14T06:13:25.236Z,33.00
2018-11-14T06:15:59.258Z,32.80
2018-11-14T06:18:33.357Z,32.60
2018-11-14T06:21:08.080Z,32.50
2018-11-14T06:23:42.083Z,32.40
2018-11-14T06:26:17.309Z,32.20
2018-11-14T06:28:50.585Z,32.10
2018-11-14T06:31:24.367Z,32.00
2018-11-14T06:33:58.456Z,31.90
2018-11-14T06:36:33.523Z,31.80
2018-11-14T06:39:09.108Z,31.70
2018-11-14T06:41:43.179Z,31.70
2018-11-14T06:44:17.604Z,31.60
2018-11-14T06:46:53.193Z,31.60
2018-11-14T06:49:26.595Z,31.50
2018-11-14T06:52:00.429Z,31.40
2018-11-14T06:54:34.328Z,31.40
2018-11-14T06:57:08.066Z,31.40
2018-11-14T06:59:41.642Z,31.40
2018-11-14T07:02:16.605Z,31.30
2018-11-14T07:04:51.390Z,31.30
2018-11-14T07:07:25.246Z,31.30
2018-11-14T07:10:01.246Z,31.20
2018-11-14T07:12:37.685Z,31.20
2018-11-14T07:15:19.166Z,31.20
2018-11-14T07:17:53.785Z,31.20
2018-11-14T07:20:33.450Z,31.20
2018-11-14T07:23:07.516Z,31.30
2018-11-14T07:25:41.379Z,31.30
2018-11-14T07:28:16.474Z,31.30
2018-11-14T07:30:53.936Z,31.40
2018-11-14T07:33:28.653Z,31.40
2018-11-14T07:36:03.579Z,31.50
2018-11-14T07:38:41.833Z,31.50
2018-11-14T07:41:19.594Z,31.50
2018-11-14T07:43:53.447Z,31.50
2018-11-14T07:46:28.453Z,31.60
2018-11-14T07:49:03.395Z,31.60
2018-11-14T07:51:39.443Z,31.70
2018-11-14T07:54:13.178Z,31.70
2018-11-14T07:56:47.087Z,31.80
2018-11-14T07:59:20.663Z,31.90
2018-11-14T08:01:55.023Z,31.90
2018-11-14T08:04:28.489Z,32.00
2018-11-14T08:07:02.382Z,32.10
2018-11-14T08:09:36.691Z,32.20
2018-11-14T08:12:10.618Z,32.20
2018-11-14T08:14:45.273Z,32.30
2018-11-14T08:17:19.221Z,32.30
2018-11-14T08:19:53.934Z,32.40
2018-11-14T08:22:27.790Z,32.50
2018-11-14T08:25:01.702Z,32.50
2018-11-14T08:27:35.386Z,32.60
2018-11-14T08:30:10.479Z,32.70
2018-11-14T08:32:45.248Z,32.80
2018-11-14T08:35:19.049Z,32.90
2018-11-14T08:37:53.443Z,32.90
2018-11-14T08:40:27.498Z,33.00
2018-11-14T08:43:01.385Z,33.00
2018-11-14T08:45:36.841Z,33.10
2018-11-14T08:48:11.388Z,33.10
2018-11-14T08:50:46.562Z,33.20
2018-11-14T08:53:20.172Z,33.20
2018-11-14T08:55:58.310Z,33.30
2018-11-14T08:58:33.571Z,33.30
2018-11-14T09:01:07.550Z,33.30
2018-11-14T09:03:41.749Z,33.40
2018-11-14T09:06:15.891Z,33.40
2018-11-14T09:08:50.595Z,33.40
2018-11-14T09:11:24.870Z,33.50
2018-11-14T09:13:59.001Z,33.50
2018-11-14T09:16:33.609Z,33.50
2018-11-14T09:19:07.493Z,33.50
2018-11-14T09:21:42.058Z,33.50
2018-11-14T09:24:16.551Z,33.60
2018-11-14T09:26:50.522Z,33.60
2018-11-14T09:29:24.151Z,33.60
2018-11-14T09:31:58.299Z,33.50
2018-11-14T09:34:33.547Z,33.50
2018-11-14T09:37:07.786Z,33.50
2018-11-14T09:39:43.140Z,33.50
2018-11-14T09:42:16.985Z,33.50
2018-11-14T09:44:51.488Z,33.50
2018-11-14T09:47:26.366Z,33.40
2018-11-14T09:49:59.979Z,33.40
2018-11-14T09:52:34.414Z,33.40
2018-11-14T09:55:08.509Z,33.30
2018-11-14T09:57:42.734Z,33.40
2018-11-14T10:00:19.460Z,33.40
2018-11-14T10:02:54.194Z,33.30
2018-11-14T10:05:29.657Z,33.30
2018-11-14T10:08:04.000Z,33.30
2018-11-14T10:10:37.684Z,33.20
2018-11-14T10:13:11.937Z,33.20
2018-11-14T10:15:46.586Z,33.20
2018-11-14T10:18:20.054Z,33.20
2018-11-14T10:20:54.045Z,33.20
2018-11-14T10:23:27.686Z,33.20
2018-11-14T10:26:01.837Z,33.10
2018-11-14T10:28:35.968Z,33.10
2018-11-14T10:31:09.281Z,33.10
2018-11-14T10:33:45.636Z,33.10
2018-11-14T10:36:19.324Z,33.10
2018-11-14T10:38:53.464Z,33.00
2018-11-14T10:41:27.214Z,33.00
2018-11-14T10:44:01.556Z,33.00
2018-11-14T10:46:36.052Z,33.00
2018-11-14T10:49:10.106Z,33.00
2018-11-14T10:51:44.225Z,32.90
2018-11-14T10:54:18.662Z,32.90
2018-11-14T10:56:52.739Z,32.90
2018-11-14T10:59:27.866Z,32.90
2018-11-14T11:02:06.608Z,32.80
2018-11-14T11:04:44.333Z,32.80
2018-11-14T11:07:22.368Z,32.80
2018-11-14T11:10:00.379Z,32.70
2018-11-14T11:12:39.477Z,32.70
2018-11-14T11:15:28.771Z,32.70
2018-11-14T11:18:08.479Z,32.70
2018-11-14T11:20:42.682Z,32.70
2018-11-14T11:23:16.436Z,32.60
2018-11-14T11:25:50.813Z,32.60
2018-11-14T11:28:24.584Z,32.60
2018-11-14T11:30:58.702Z,32.60
2018-11-14T11:33:32.474Z,32.60
2018-11-14T11:36:06.006Z,32.60
2018-11-14T11:38:40.873Z,32.60
2018-11-14T11:41:16.396Z,32.60
2018-11-14T11:43:51.109Z,32.50
2018-11-14T11:46:25.133Z,32.50
2018-11-14T11:48:59.070Z,32.60
2018-11-14T11:51:33.116Z,32.50
2018-11-14T11:54:07.157Z,32.50
2018-11-14T11:56:43.376Z,32.50
2018-11-14T11:59:17.212Z,32.50
2018-11-14T12:01:51.928Z,32.50
2018-11-14T12:04:25.800Z,32.50
2018-11-14T12:06:59.419Z,32.40
2018-11-14T12:09:33.135Z,32.40
2018-11-14T12:12:06.990Z,32.40
2018-11-14T12:14:40.861Z,32.40
2018-11-14T12:17:15.675Z,32.40
2018-11-14T12:19:49.903Z,32.40
2018-11-14T12:22:24.852Z,32.40
2018-11-14T12:24:58.604Z,32.40
2018-11-14T12:27:32.683Z,32.40
2018-11-14T12:30:06.529Z,32.40
2018-11-14T12:32:43.182Z,32.40
2018-11-14T12:35:18.653Z,32.40
2018-11-14T12:37:52.553Z,32.40
2018-11-14T12:40:26.879Z,32.40
2018-11-14T12:43:03.029Z,32.30
2018-11-14T12:45:37.590Z,32.30
2018-11-14T12:48:12.282Z,32.30
2018-11-14T12:50:47.488Z,32.30
2018-11-14T12:53:20.933Z,32.30
2018-11-14T12:55:55.075Z,32.30
2018-11-14T12:58:31.313Z,32.30
2018-11-14T13:01:05.320Z,32.30
2018-11-14T13:03:41.989Z,32.30
2018-11-14T13:06:16.606Z,32.20
2018-11-14T13:08:50.353Z,32.20
2018-11-14T13:11:24.422Z,32.20
2018-11-14T13:13:58.858Z,32.20
2018-11-14T13:16:32.750Z,32.20
2018-11-14T13:19:06.664Z,32.10
2018-11-14T13:21:40.341Z,32.10
2018-11-14T13:24:14.342Z,32.10
2018-11-14T13:26:48.567Z,32.10
2018-11-14T13:29:23.352Z,32.10
2018-11-14T13:31:57.503Z,32.00
2018-11-14T13:34:33.365Z,32.00
2018-11-14T13:37:07.014Z,32.00
2018-11-14T13:39:41.079Z,32.00
2018-11-14T13:42:15.454Z,32.00
2018-11-14T13:44:50.358Z,32.00
2018-11-14T13:47:23.978Z,32.00
2018-11-14T13:49:59.226Z,32.00
2018-11-14T13:52:34.256Z,32.00
2018-11-14T13:55:09.067Z,32.00
2018-11-14T13:57:43.836Z,32.00
2018-11-14T14:00:20.694Z,32.00
2018-11-14T14:02:55.431Z,32.00
2018-11-14T14:05:29.385Z,32.00
2018-11-14T14:08:07.213Z,32.00
2018-11-14T14:10:41.235Z,32.00
2018-11-14T14:13:15.102Z,31.90
2018-11-14T14:15:49.387Z,31.90
2018-11-14T14:18:23.049Z,31.90
2018-11-14T14:20:57.160Z,31.90
2018-11-14T14:23:31.010Z,31.90
2018-11-14T14:26:05.238Z,31.90
2018-11-14T14:28:39.343Z,31.90
2018-11-14T14:31:13.830Z,31.80
2018-11-14T14:33:48.322Z,31.80
2018-11-14T14:36:22.685Z,31.80
2018-11-14T14:38:58.452Z,31.80
2018-11-14T14:41:32.259Z,31.80
2018-11-14T14:44:07.009Z,31.80
2018-11-14T14:46:41.051Z,31.80
2018-11-14T14:49:14.787Z,31.80
2018-11-14T14:51:48.754Z,31.70
2018-11-14T14:54:22.659Z,31.70
2018-11-14T14:56:56.331Z,31.70
2018-11-14T14:59:30.524Z,31.70
2018-11-14T15:02:05.617Z,31.70
2018-11-14T15:04:39.513Z,31.70
2018-11-14T15:07:13.435Z,31.70
2018-11-14T15:09:47.352Z,31.70
2018-11-14T15:12:22.744Z,31.70
2018-11-14T15:14:57.697Z,31.60
2018-11-14T15:17:32.686Z,31.60
2018-11-14T15:20:09.286Z,31.60
2018-11-14T15:22:44.443Z,31.60
2018-11-14T15:25:19.875Z,31.60
2018-11-14T15:27:54.212Z,31.60
2018-11-14T15:30:29.445Z,31.60
2018-11-14T15:33:03.811Z,31.60
2018-11-14T15:35:36.928Z,31.60
2018-11-14T15:38:11.494Z,31.60
2018-11-14T15:40:44.864Z,31.60
2018-11-14T15:43:19.225Z,31.60
2018-11-14T15:45:52.800Z,31.60
2018-11-14T15:48:26.487Z,31.60
2018-11-14T15:51:00.577Z,31.60
2018-11-14T15:53:34.245Z,31.60
2018-11-14T15:56:08.289Z,31.60
2018-11-14T15:58:43.241Z,31.60
2018-11-14T16:01:17.481Z,31.50
2018-11-14T16:03:53.304Z,31.60
2018-11-14T16:06:27.189Z,31.50
2018-11-14T16:09:01.082Z,31.50
2018-11-14T16:11:36.450Z,31.50
2018-11-14T16:14:10.534Z,31.50
2018-11-14T16:16:44.990Z,31.50
2018-11-14T16:19:20.043Z,31.50
2018-11-14T16:21:54.203Z,31.50
2018-11-14T16:24:28.182Z,31.40
2018-11-14T16:27:03.877Z,31.40
2018-11-14T16:29:38.099Z,31.40
2018-11-14T16:32:12.759Z,31.40
2018-11-14T16:34:46.802Z,31.40
2018-11-14T16:37:20.369Z,31.40
2018-11-14T16:39:55.780Z,31.30
2018-11-14T16:42:29.796Z,31.30
2018-11-14T16:45:03.880Z,31.20
2018-11-14T16:47:37.838Z,31.20
2018-11-14T16:50:13.113Z,31.20
2018-11-14T16:52:46.297Z,31.10
2018-11-14T16:55:22.843Z,31.10
2018-11-14T16:57:59.238Z,31.10
2018-11-14T17:00:33.667Z,31.00
2018-11-14T17:03:07.752Z,31.00
2018-11-14T17:05:42.308Z,31.00
2018-11-14T17:08:16.075Z,31.00
2018-11-14T17:10:50.904Z,31.00
2018-11-14T17:13:24.949Z,31.00
2018-11-14T17:15:59.705Z,31.00
2018-11-14T17:18:34.256Z,31.00
2018-11-14T17:21:07.949Z,31.00
2018-11-14T17:23:43.235Z,31.00
2018-11-14T17:26:17.288Z,31.00
2018-11-14T17:28:55.385Z,30.90
2018-11-14T17:31:30.168Z,30.90
2018-11-14T17:34:03.753Z,30.90
2018-11-14T17:36:39.133Z,30.90
2018-11-14T17:39:15.015Z,30.90
2018-11-14T17:41:49.493Z,30.90
2018-11-14T17:44:23.794Z,30.90
2018-11-14T17:46:57.440Z,30.90
2018-11-14T17:49:31.293Z,30.90
2018-11-14T17:52:08.519Z,30.90
2018-11-14T17:54:45.764Z,30.90
2018-11-14T17:57:21.100Z,30.90
2018-11-14T17:59:56.138Z,30.90
2018-11-14T18:02:31.759Z,30.90
2018-11-14T18:05:06.308Z,30.90
2018-11-14T18:07:41.038Z,30.90
2018-11-14T18:10:17.176Z,30.90
2018-11-14T18:12:51.995Z,30.90
2018-11-14T18:15:26.486Z,30.90
2018-11-14T18:18:00.578Z,30.90
2018-11-14T18:23:07.851Z,30.90
2018-11-14T18:25:41.751Z,30.90
2018-11-14T18:28:16.145Z,30.90
2018-11-14T18:30:50.356Z,30.80
2018-11-14T18:33:24.444Z,30.80
2018-11-14T18:35:58.498Z,30.80
2018-11-14T18:38:33.891Z,30.80
2018-11-14T18:41:07.737Z,30.80
2018-11-14T18:43:41.371Z,30.80
2018-11-14T18:46:17.010Z,30.80
2018-11-14T18:48:51.627Z,30.80
2018-11-14T18:51:26.693Z,30.80
2018-11-14T18:54:02.194Z,30.80
2018-11-14T18:56:35.980Z,30.80
2018-11-14T18:59:11.245Z,30.70
2018-11-14T19:01:45.266Z,30.70
2018-11-14T19:04:19.495Z,30.70
2018-11-14T19:06:53.444Z,30.70
2018-11-14T19:09:29.257Z,30.70
2018-11-14T19:12:03.113Z,30.70
2018-11-14T19:14:36.926Z,30.70
2018-11-14T19:17:09.957Z,30.60
2018-11-14T19:19:43.882Z,30.70
2018-11-14T19:22:17.526Z,30.60
2018-11-14T19:24:51.917Z,30.60
2018-11-14T19:27:25.523Z,30.60
2018-11-14T19:29:59.920Z,30.60
2018-11-14T19:32:33.811Z,30.60
2018-11-14T19:35:08.290Z,30.60
2018-11-14T19:37:42.896Z,30.60
2018-11-14T19:40:20.131Z,30.60
2018-11-14T19:42:56.676Z,30.60
2018-11-14T19:45:32.607Z,30.60
2018-11-14T19:48:06.109Z,30.60
2018-11-14T19:50:40.864Z,30.60
2018-11-14T19:53:15.026Z,30.50
2018-11-14T19:55:48.775Z,30.50
2018-11-14T19:58:22.821Z,30.50
2018-11-14T20:00:56.765Z,30.50
2018-11-14T20:03:31.169Z,30.50
2018-11-14T20:06:06.490Z,30.50
2018-11-14T20:08:40.503Z,30.50
2018-11-14T20:11:15.588Z,30.50
2018-11-14T20:13:49.986Z,30.50
2018-11-14T20:16:23.912Z,30.50
2018-11-14T20:18:58.437Z,30.50
2018-11-14T20:21:33.152Z,30.50
2018-11-14T20:24:07.028Z,30.50
2018-11-14T20:26:42.224Z,30.50
2018-11-14T20:29:15.891Z,30.40
2018-11-14T20:31:50.507Z,30.40
2018-11-14T20:34:24.056Z,30.40
2018-11-14T20:36:58.226Z,30.40
2018-11-14T20:39:32.768Z,30.40
2018-11-14T20:42:07.547Z,30.40
2018-11-14T20:44:41.694Z,30.40
2018-11-14T20:47:15.338Z,30.40
2018-11-14T20:49:49.463Z,30.40
2018-11-14T20:52:23.520Z,30.40
2018-11-14T20:54:57.259Z,30.40
2018-11-14T20:57:31.064Z,30.40
2018-11-14T21:00:04.840Z,30.40
2018-11-14T21:02:39.802Z,30.40
2018-11-14T21:05:14.532Z,30.40
2018-11-14T21:07:48.334Z,30.30
2018-11-14T21:10:23.587Z,30.40
2018-11-14T21:12:58.458Z,30.40
2018-11-14T21:15:33.755Z,30.40
2018-11-14T21:18:08.093Z,30.30
2018-11-14T21:20:42.113Z,30.30
2018-11-14T21:23:15.857Z,30.40
2018-11-14T21:25:52.063Z,30.30
2018-11-14T21:28:27.072Z,30.30
2018-11-14T21:31:01.635Z,30.30
2018-11-14T21:33:35.406Z,30.30
2018-11-14T21:36:11.046Z,30.30
2018-11-14T21:38:45.437Z,30.30
2018-11-14T21:41:19.285Z,30.30
2018-11-14T21:43:54.115Z,30.30
2018-11-14T21:46:28.849Z,30.30
2018-11-14T21:49:05.042Z,30.30
2018-11-14T21:51:39.436Z,30.30
2018-11-14T21:54:13.331Z,30.20
2018-11-14T21:56:48.199Z,30.20
2018-11-14T21:59:22.099Z,30.20
2018-11-14T22:01:55.867Z,30.20
2018-11-14T22:04:29.608Z,30.20
2018-11-14T22:07:02.985Z,30.20
2018-11-14T22:09:37.263Z,30.20
2018-11-14T22:12:11.176Z,30.20
2018-11-14T22:14:46.397Z,30.20
2018-11-14T22:17:20.435Z,30.20
2018-11-14T22:19:54.289Z,30.20
2018-11-14T22:22:28.217Z,30.20
2018-11-14T22:25:02.368Z,30.10
2018-11-14T22:27:36.110Z,30.20
2018-11-14T22:30:14.346Z,30.20
2018-11-14T22:32:48.769Z,30.10
2018-11-14T22:35:23.872Z,30.20
2018-11-14T22:37:58.196Z,30.20
2018-11-14T22:40:32.880Z,30.10
2018-11-14T22:43:08.027Z,30.10
2018-11-14T22:45:43.292Z,30.10
2018-11-14T22:48:18.225Z,30.10
2018-11-14T22:50:52.915Z,30.10
2018-11-14T22:53:27.246Z,30.10
2018-11-14T22:56:01.490Z,30.10
2018-11-14T22:58:35.761Z,30.10
2018-11-14T23:01:10.566Z,30.10
2018-11-14T23:03:44.780Z,30.10
2018-11-14T23:06:22.604Z,30.10
2018-11-14T23:08:57.565Z,30.10
2018-11-14T23:11:31.618Z,30.10
2018-11-14T23:14:05.543Z,30.00
2018-11-14T23:16:41.348Z,30.00
2018-11-14T23:19:15.230Z,30.00
2018-11-14T23:21:49.090Z,30.00
2018-11-14T23:24:23.404Z,30.00
2018-11-14T23:26:58.470Z,30.00
2018-11-14T23:29:34.032Z,30.00
2018-11-14T23:32:07.947Z,30.00
2018-11-14T23:34:45.498Z,30.00
2018-11-14T23:37:20.666Z,30.00
2018-11-14T23:39:54.756Z,30.00
2018-11-14T23:42:28.722Z,30.00
2018-11-14T23:45:03.220Z,30.00
2018-11-14T23:47:37.076Z,30.00
2018-11-14T23:50:16.210Z,30.00
2018-11-14T23:52:54.434Z,30.10
2018-11-14T23:55:29.367Z,30.10
2018-11-14T23:58:03.139Z,30.10
